sensor_id;sensor_type;location;lat;lon;timestamp;temperature;humidity
8858;DHT22;4465;50.904;4.696;2024-03-23T00:52:32;8.10;99.90
8858;DHT22;4465;50.904;4.696;2024-03-23T00:54:58;8.10;99.90
8858;DHT22;4465;50.904;4.696;2024-03-23T00:57:24;8.10;99.90
8858;DHT22;4465;50.904;4.696;2024-03-23T00:59:52;8.10;99.90
8858;DHT22;4465;50.904;4.696;2024-03-23T01:02:18;8.00;99.90
8858;DHT22;4465;50.904;4.696;2024-03-23T01:04:47;8.00;99.90
8858;DHT22;4465;50.904;4.696;2024-03-23T01:07:18;7.90;99.90
8858;DHT22;4465;50.904;4.696;2024-03-23T01:09:46;7.90;99.90
8858;DHT22;4465;50.904;4.696;2024-03-23T01:12:12;7.90;99.90
8858;DHT22;4465;50.904;4.696;2024-03-23T01:14:38;7.90;99.90
8858;DHT22;4465;50.904;4.696;2024-03-23T01:17:04;7.90;99.90
8858;DHT22;4465;50.904;4.696;2024-03-23T01:19:30;7.90;99.90
8858;DHT22;4465;50.904;4.696;2024-03-23T01:21:56;7.80;99.90
8858;DHT22;4465;50.904;4.696;2024-03-23T01:24:22;7.80;99.90
8858;DHT22;4465;50.904;4.696;2024-03-23T01:26:50;7.80;99.90
8858;DHT22;4465;50.904;4.696;2024-03-23T01:29:18;7.80;99.90
8858;DHT22;4465;50.904;4.696;2024-03-23T01:31:44;7.80;99.90
8858;DHT22;4465;50.904;4.696;2024-03-23T01:34:10;7.70;99.90
8858;DHT22;4465;50.904;4.696;2024-03-23T01:36:38;7.70;99.90
8858;DHT22;4465;50.904;4.696;2024-03-23T01:39:04;7.70;99.90
8858;DHT22;4465;50.904;4.696;2024-03-23T01:41:30;7.70;99.90
8858;DHT22;4465;50.904;4.696;2024-03-23T01:43:59;7.70;99.90
8858;DHT22;4465;50.904;4.696;2024-03-23T01:46:32;7.70;99.90
8858;DHT22;4465;50.904;4.696;2024-03-23T01:49:00;7.70;99.90
8858;DHT22;4465;50.904;4.696;2024-03-23T01:51:27;7.60;99.90
8858;DHT22;4465;50.904;4.696;2024-03-23T01:53:54;7.60;99.90
8858;DHT22;4465;50.904;4.696;2024-03-23T01:56:22;7.60;99.90
8858;DHT22;4465;50.904;4.696;2024-03-23T01:58:47;7.60;99.90
8858;DHT22;4465;50.904;4.696;2024-03-23T02:01:13;7.60;99.90
8858;DHT22;4465;50.904;4.696;2024-03-23T02:03:41;7.60;99.90
8858;DHT22;4465;50.904;4.696;2024-03-23T02:06:12;7.50;99.90
8858;DHT22;4465;50.904;4.696;2024-03-23T02:08:38;7.50;99.90
8858;DHT22;4465;50.904;4.696;2024-03-23T02:11:04;7.50;99.90
8858;DHT22;4465;50.904;4.696;2024-03-23T02:13:32;7.50;99.90
8858;DHT22;4465;50.904;4.696;2024-03-23T02:15:58;7.50;99.90
8858;DHT22;4465;50.904;4.696;2024-03-23T02:18:26;7.40;99.90
8858;DHT22;4465;50.904;4.696;2024-03-23T02:20:52;7.40;99.90
8858;DHT22;4465;50.904;4.696;2024-03-23T02:23:18;7.30;99.90
8858;DHT22;4465;50.904;4.696;2024-03-23T02:25:44;7.30;99.90
8858;DHT22;4465;50.904;4.696;2024-03-23T02:28:10;7.30;99.90
8858;DHT22;4465;50.904;4.696;2024-03-23T02:30:37;7.30;99.90
8858;DHT22;4465;50.904;4.696;2024-03-23T02:33:03;7.30;99.90
8858;DHT22;4465;50.904;4.696;2024-03-23T02:35:29;7.20;99.90
8858;DHT22;4465;50.904;4.696;2024-03-23T02:37:57;7.20;99.90
8858;DHT22;4465;50.904;4.696;2024-03-23T02:40:24;7.20;99.90
8858;DHT22;4465;50.904;4.696;2024-03-23T02:42:50;7.20;99.90
8858;DHT22;4465;50.904;4.696;2024-03-23T02:45:23;7.20;99.90
8858;DHT22;4465;50.904;4.696;2024-03-23T02:47:49;7.20;99.90
8858;DHT22;4465;50.904;4.696;2024-03-23T02:50:20;7.20;99.90
8858;DHT22;4465;50.904;4.696;2024-03-23T02:52:46;7.20;99.90
8858;DHT22;4465;50.904;4.696;2024-03-23T02:55:14;7.20;99.90
8858;DHT22;4465;50.904;4.696;2024-03-23T02:57:41;7.20;99.90
8858;DHT22;4465;50.904;4.696;2024-03-23T03:00:07;7.30;99.90
8858;DHT22;4465;50.904;4.696;2024-03-23T03:02:37;7.30;99.90
8858;DHT22;4465;50.904;4.696;2024-03-23T03:05:04;7.30;99.90
8858;DHT22;4465;50.904;4.696;2024-03-23T03:07:31;7.30;99.90
8858;DHT22;4465;50.904;4.696;2024-03-23T03:09:57;7.30;99.90
8858;DHT22;4465;50.904;4.696;2024-03-23T03:12:26;7.30;99.90
8858;DHT22;4465;50.904;4.696;2024-03-23T03:14:52;7.40;99.90
8858;DHT22;4465;50.904;4.696;2024-03-23T03:17:18;7.40;99.90
8858;DHT22;4465;50.904;4.696;2024-03-23T03:19:47;7.40;99.90
8858;DHT22;4465;50.904;4.696;2024-03-23T03:22:13;7.40;99.90
8858;DHT22;4465;50.904;4.696;2024-03-23T03:24:39;7.40;99.90
8858;DHT22;4465;50.904;4.696;2024-03-23T03:27:07;7.40;99.90
8858;DHT22;4465;50.904;4.696;2024-03-23T03:29:33;7.40;99.90
8858;DHT22;4465;50.904;4.696;2024-03-23T03:32:02;7.50;99.90
8858;DHT22;4465;50.904;4.696;2024-03-23T03:34:28;7.50;99.90
8858;DHT22;4465;50.904;4.696;2024-03-23T03:36:58;7.50;99.90
8858;DHT22;4465;50.904;4.696;2024-03-23T03:39:25;7.50;99.90
8858;DHT22;4465;50.904;4.696;2024-03-23T03:41:51;7.50;99.90
8858;DHT22;4465;50.904;4.696;2024-03-23T03:44:19;7.50;99.90
8858;DHT22;4465;50.904;4.696;2024-03-23T03:46:45;7.50;99.90
8858;DHT22;4465;50.904;4.696;2024-03-23T03:49:11;7.50;99.90
8858;DHT22;4465;50.904;4.696;2024-03-23T03:51:37;7.50;99.90
8858;DHT22;4465;50.904;4.696;2024-03-23T03:54:03;7.50;99.90
8858;DHT22;4465;50.904;4.696;2024-03-23T03:56:29;7.50;99.90
8858;DHT22;4465;50.904;4.696;2024-03-23T03:58:57;7.50;99.90
8858;DHT22;4465;50.904;4.696;2024-03-23T04:01:25;7.50;99.90
8858;DHT22;4465;50.904;4.696;2024-03-23T04:03:53;7.50;99.90
8858;DHT22;4465;50.904;4.696;2024-03-23T04:06:19;7.50;99.90
8858;DHT22;4465;50.904;4.696;2024-03-23T04:08:47;7.40;99.90
8858;DHT22;4465;50.904;4.696;2024-03-23T04:11:13;7.40;99.90
8858;DHT22;4465;50.904;4.696;2024-03-23T04:13:39;7.40;99.90
8858;DHT22;4465;50.904;4.696;2024-03-23T04:16:07;7.40;99.90
8858;DHT22;4465;50.904;4.696;2024-03-23T04:18:35;7.40;99.90
8858;DHT22;4465;50.904;4.696;2024-03-23T04:21:01;7.30;99.90
8858;DHT22;4465;50.904;4.696;2024-03-23T04:23:28;7.30;99.90
8858;DHT22;4465;50.904;4.696;2024-03-23T04:25:54;7.30;99.90
8858;DHT22;4465;50.904;4.696;2024-03-23T04:28:20;7.20;99.90
8858;DHT22;4465;50.904;4.696;2024-03-23T04:30:48;7.20;99.90
8858;DHT22;4465;50.904;4.696;2024-03-23T04:33:17;7.20;99.90
8858;DHT22;4465;50.904;4.696;2024-03-23T04:35:49;7.10;99.90
8858;DHT22;4465;50.904;4.696;2024-03-23T04:38:15;7.10;99.90
8858;DHT22;4465;50.904;4.696;2024-03-23T04:40:43;7.10;99.90
8858;DHT22;4465;50.904;4.696;2024-03-23T04:43:09;7.10;99.90
8858;DHT22;4465;50.904;4.696;2024-03-23T04:45:35;7.00;99.90
8858;DHT22;4465;50.904;4.696;2024-03-23T04:48:03;7.10;99.90
8858;DHT22;4465;50.904;4.696;2024-03-23T04:50:29;7.00;99.90
8858;DHT22;4465;50.904;4.696;2024-03-23T04:52:57;7.00;99.90
8858;DHT22;4465;50.904;4.696;2024-03-23T04:55:25;7.00;99.90
8858;DHT22;4465;50.904;4.696;2024-03-23T04:57:54;7.00;99.90
8858;DHT22;4465;50.904;4.696;2024-03-23T05:00:19;7.00;99.90
8858;DHT22;4465;50.904;4.696;2024-03-23T05:02:45;7.00;99.90
8858;DHT22;4465;50.904;4.696;2024-03-23T05:05:12;7.00;99.90
8858;DHT22;4465;50.904;4.696;2024-03-23T05:07:38;7.00;99.90
8858;DHT22;4465;50.904;4.696;2024-03-23T05:10:06;7.10;99.90
8858;DHT22;4465;50.904;4.696;2024-03-23T05:12:39;7.00;99.90
8858;DHT22;4465;50.904;4.696;2024-03-23T05:15:05;7.00;99.90
8858;DHT22;4465;50.904;4.696;2024-03-23T05:17:32;7.00;99.90
8858;DHT22;4465;50.904;4.696;2024-03-23T05:19:58;7.00;99.90
8858;DHT22;4465;50.904;4.696;2024-03-23T05:22:25;7.10;99.90
8858;DHT22;4465;50.904;4.696;2024-03-23T05:24:51;7.00;99.90
8858;DHT22;4465;50.904;4.696;2024-03-23T05:27:16;7.00;99.90
8858;DHT22;4465;50.904;4.696;2024-03-23T05:29:42;7.00;99.90
8858;DHT22;4465;50.904;4.696;2024-03-23T05:32:08;7.00;99.90
8858;DHT22;4465;50.904;4.696;2024-03-23T05:34:38;6.90;99.90
8858;DHT22;4465;50.904;4.696;2024-03-23T05:37:06;6.90;99.90
8858;DHT22;4465;50.904;4.696;2024-03-23T05:39:32;6.90;99.90
8858;DHT22;4465;50.904;4.696;2024-03-23T05:42:00;6.90;99.90
8858;DHT22;4465;50.904;4.696;2024-03-23T05:44:26;6.80;99.90
8858;DHT22;4465;50.904;4.696;2024-03-23T05:46:52;6.80;99.90
8858;DHT22;4465;50.904;4.696;2024-03-23T05:49:18;6.80;99.90
8858;DHT22;4465;50.904;4.696;2024-03-23T05:51:44;6.80;99.90
8858;DHT22;4465;50.904;4.696;2024-03-23T05:54:10;6.70;99.90
8858;DHT22;4465;50.904;4.696;2024-03-23T05:56:38;6.70;99.90
8858;DHT22;4465;50.904;4.696;2024-03-23T05:59:04;6.70;99.90
8858;DHT22;4465;50.904;4.696;2024-03-23T06:01:30;6.70;99.90
8858;DHT22;4465;50.904;4.696;2024-03-23T06:04:00;6.70;99.90
8858;DHT22;4465;50.904;4.696;2024-03-23T06:06:27;6.60;99.90
8858;DHT22;4465;50.904;4.696;2024-03-23T06:08:55;6.60;99.90
8858;DHT22;4465;50.904;4.696;2024-03-23T06:11:23;6.60;99.90
8858;DHT22;4465;50.904;4.696;2024-03-23T06:13:49;6.60;99.90
8858;DHT22;4465;50.904;4.696;2024-03-23T06:16:18;6.70;99.90
8858;DHT22;4465;50.904;4.696;2024-03-23T06:18:53;6.70;99.90
8858;DHT22;4465;50.904;4.696;2024-03-23T06:21:20;6.60;99.90
8858;DHT22;4465;50.904;4.696;2024-03-23T06:23:54;6.70;99.90
8858;DHT22;4465;50.904;4.696;2024-03-23T06:26:20;6.70;99.90
8858;DHT22;4465;50.904;4.696;2024-03-23T06:28:47;6.70;99.90
8858;DHT22;4465;50.904;4.696;2024-03-23T06:31:13;6.80;99.90
8858;DHT22;4465;50.904;4.696;2024-03-23T06:33:40;6.90;99.90
8858;DHT22;4465;50.904;4.696;2024-03-23T06:36:11;6.90;99.90
8858;DHT22;4465;50.904;4.696;2024-03-23T06:38:38;6.90;99.90
8858;DHT22;4465;50.904;4.696;2024-03-23T06:41:05;6.90;99.90
8858;DHT22;4465;50.904;4.696;2024-03-23T06:43:31;6.90;99.90
8858;DHT22;4465;50.904;4.696;2024-03-23T06:45:57;7.00;99.90
8858;DHT22;4465;50.904;4.696;2024-03-23T06:48:23;7.00;99.90
8858;DHT22;4465;50.904;4.696;2024-03-23T06:50:49;7.00;99.90
8858;DHT22;4465;50.904;4.696;2024-03-23T06:53:15;7.00;99.90
8858;DHT22;4465;50.904;4.696;2024-03-23T06:55:41;7.00;99.90
8858;DHT22;4465;50.904;4.696;2024-03-23T06:58:08;7.10;99.90
8858;DHT22;4465;50.904;4.696;2024-03-23T07:00:36;7.10;99.90
8858;DHT22;4465;50.904;4.696;2024-03-23T07:03:02;7.10;99.90
8858;DHT22;4465;50.904;4.696;2024-03-23T07:05:29;7.20;99.90
8858;DHT22;4465;50.904;4.696;2024-03-23T07:07:55;7.20;99.90
8858;DHT22;4465;50.904;4.696;2024-03-23T07:10:21;7.20;99.90
8858;DHT22;4465;50.904;4.696;2024-03-23T07:12:49;7.20;99.90
8858;DHT22;4465;50.904;4.696;2024-03-23T07:15:17;7.20;99.90
8858;DHT22;4465;50.904;4.696;2024-03-23T07:17:47;7.30;99.90
8858;DHT22;4465;50.904;4.696;2024-03-23T07:20:15;7.20;99.90
8858;DHT22;4465;50.904;4.696;2024-03-23T07:22:41;7.30;99.90
8858;DHT22;4465;50.904;4.696;2024-03-23T07:25:07;7.30;99.90
8858;DHT22;4465;50.904;4.696;2024-03-23T07:27:36;7.30;99.90
8858;DHT22;4465;50.904;4.696;2024-03-23T07:30:01;7.40;99.90
8858;DHT22;4465;50.904;4.696;2024-03-23T07:32:27;7.40;99.90
8858;DHT22;4465;50.904;4.696;2024-03-23T07:34:53;7.40;99.90
8858;DHT22;4465;50.904;4.696;2024-03-23T07:37:19;7.50;99.90
8858;DHT22;4465;50.904;4.696;2024-03-23T07:39:47;7.50;99.90
8858;DHT22;4465;50.904;4.696;2024-03-23T07:42:14;7.50;99.90
8858;DHT22;4465;50.904;4.696;2024-03-23T07:44:40;7.50;99.90
8858;DHT22;4465;50.904;4.696;2024-03-23T07:47:06;7.50;99.90
8858;DHT22;4465;50.904;4.696;2024-03-23T07:49:34;7.50;99.90
8858;DHT22;4465;50.904;4.696;2024-03-23T07:52:00;7.50;99.90
8858;DHT22;4465;50.904;4.696;2024-03-23T07:54:28;7.50;99.90
8858;DHT22;4465;50.904;4.696;2024-03-23T07:56:57;7.50;99.90
8858;DHT22;4465;50.904;4.696;2024-03-23T07:59:25;7.50;99.90
8858;DHT22;4465;50.904;4.696;2024-03-23T08:01:53;7.40;99.90
8858;DHT22;4465;50.904;4.696;2024-03-23T08:04:23;7.40;99.90
8858;DHT22;4465;50.904;4.696;2024-03-23T08:06:48;7.50;99.90
8858;DHT22;4465;50.904;4.696;2024-03-23T08:09:14;7.50;99.90
8858;DHT22;4465;50.904;4.696;2024-03-23T08:11:40;7.50;99.90
8858;DHT22;4465;50.904;4.696;2024-03-23T08:14:09;7.60;99.90
8858;DHT22;4465;50.904;4.696;2024-03-23T08:16:35;7.70;99.90
8858;DHT22;4465;50.904;4.696;2024-03-23T08:19:01;7.70;99.90
8858;DHT22;4465;50.904;4.696;2024-03-23T08:21:30;7.80;99.90
8858;DHT22;4465;50.904;4.696;2024-03-23T08:23:56;7.80;99.90
8858;DHT22;4465;50.904;4.696;2024-03-23T08:26:22;8.00;99.90
8858;DHT22;4465;50.904;4.696;2024-03-23T08:28:48;8.00;99.90
8858;DHT22;4465;50.904;4.696;2024-03-23T08:31:14;8.10;99.90
8858;DHT22;4465;50.904;4.696;2024-03-23T08:33:40;8.20;99.90
8858;DHT22;4465;50.904;4.696;2024-03-23T08:36:11;8.30;99.90
8858;DHT22;4465;50.904;4.696;2024-03-23T08:38:40;8.40;99.90
8858;DHT22;4465;50.904;4.696;2024-03-23T08:41:08;8.50;99.90
8858;DHT22;4465;50.904;4.696;2024-03-23T08:43:41;8.70;99.90
8858;DHT22;4465;50.904;4.696;2024-03-23T08:46:08;8.80;99.90
8858;DHT22;4465;50.904;4.696;2024-03-23T08:48:35;8.90;99.90
8858;DHT22;4465;50.904;4.696;2024-03-23T08:51:02;9.00;99.90
8858;DHT22;4465;50.904;4.696;2024-03-23T08:53:29;9.10;99.90
8858;DHT22;4465;50.904;4.696;2024-03-23T08:55:56;9.10;99.90
8858;DHT22;4465;50.904;4.696;2024-03-23T08:58:28;9.20;99.90
8858;DHT22;4465;50.904;4.696;2024-03-23T09:00:56;9.20;99.90
8858;DHT22;4465;50.904;4.696;2024-03-23T09:03:25;9.10;99.90
8858;DHT22;4465;50.904;4.696;2024-03-23T09:05:52;9.10;99.90
8858;DHT22;4465;50.904;4.696;2024-03-23T09:08:18;9.10;99.90
8858;DHT22;4465;50.904;4.696;2024-03-23T09:10:44;9.10;99.90
8858;DHT22;4465;50.904;4.696;2024-03-23T09:13:10;9.10;99.90
8858;DHT22;4465;50.904;4.696;2024-03-23T09:15:47;9.10;99.90
8858;DHT22;4465;50.904;4.696;2024-03-23T09:18:16;9.10;99.90
8858;DHT22;4465;50.904;4.696;2024-03-23T09:20:45;9.20;99.90
8858;DHT22;4465;50.904;4.696;2024-03-23T09:23:10;9.30;99.90
8858;DHT22;4465;50.904;4.696;2024-03-23T09:25:39;9.40;99.90
8858;DHT22;4465;50.904;4.696;2024-03-23T09:28:08;9.50;99.90
8858;DHT22;4465;50.904;4.696;2024-03-23T09:30:37;9.60;99.90
8858;DHT22;4465;50.904;4.696;2024-03-23T09:33:15;9.60;99.90
8858;DHT22;4465;50.904;4.696;2024-03-23T09:35:42;9.60;99.90
8858;DHT22;4465;50.904;4.696;2024-03-23T09:38:10;9.60;99.90
8858;DHT22;4465;50.904;4.696;2024-03-23T09:40:43;9.50;99.90
8858;DHT22;4465;50.904;4.696;2024-03-23T09:43:11;9.60;99.90
8858;DHT22;4465;50.904;4.696;2024-03-23T09:45:40;9.60;99.90
8858;DHT22;4465;50.904;4.696;2024-03-23T09:48:09;9.60;99.90
8858;DHT22;4465;50.904;4.696;2024-03-23T09:50:42;9.60;99.90
8858;DHT22;4465;50.904;4.696;2024-03-23T09:53:14;9.60;99.90
8858;DHT22;4465;50.904;4.696;2024-03-23T09:55:41;9.60;99.90
8858;DHT22;4465;50.904;4.696;2024-03-23T09:58:07;9.60;99.90
8858;DHT22;4465;50.904;4.696;2024-03-23T10:00:37;9.60;99.90
8858;DHT22;4465;50.904;4.696;2024-03-23T10:03:06;9.60;99.90
8858;DHT22;4465;50.904;4.696;2024-03-23T10:05:37;9.60;99.90
8858;DHT22;4465;50.904;4.696;2024-03-23T10:10:45;9.70;99.90
8858;DHT22;4465;50.904;4.696;2024-03-23T10:13:23;9.70;99.90
8858;DHT22;4465;50.904;4.696;2024-03-23T10:15:56;9.70;99.90
8858;DHT22;4465;50.904;4.696;2024-03-23T10:18:23;9.80;99.90
8858;DHT22;4465;50.904;4.696;2024-03-23T10:21:15;9.80;99.90
8858;DHT22;4465;50.904;4.696;2024-03-23T10:23:44;9.90;99.90
8858;DHT22;4465;50.904;4.696;2024-03-23T10:26:22;9.90;99.90
8858;DHT22;4465;50.904;4.696;2024-03-23T10:28:59;10.00;99.90
8858;DHT22;4465;50.904;4.696;2024-03-23T10:31:33;10.20;99.90
8858;DHT22;4465;50.904;4.696;2024-03-23T10:33:59;10.40;99.90
8858;DHT22;4465;50.904;4.696;2024-03-23T10:36:26;10.40;99.90
8858;DHT22;4465;50.904;4.696;2024-03-23T10:38:53;10.40;99.90
8858;DHT22;4465;50.904;4.696;2024-03-23T10:41:19;10.40;99.90
8858;DHT22;4465;50.904;4.696;2024-03-23T10:43:48;10.50;99.90
8858;DHT22;4465;50.904;4.696;2024-03-23T10:46:18;10.60;99.90
8858;DHT22;4465;50.904;4.696;2024-03-23T10:48:44;10.60;99.90
8858;DHT22;4465;50.904;4.696;2024-03-23T10:51:10;10.80;99.90
8858;DHT22;4465;50.904;4.696;2024-03-23T10:53:36;10.90;99.90
8858;DHT22;4465;50.904;4.696;2024-03-23T10:56:03;10.90;99.90
8858;DHT22;4465;50.904;4.696;2024-03-23T10:58:39;10.90;99.90
8858;DHT22;4465;50.904;4.696;2024-03-23T11:01:06;10.80;99.90
8858;DHT22;4465;50.904;4.696;2024-03-23T11:06:03;10.70;99.90
8858;DHT22;4465;50.904;4.696;2024-03-23T11:11:20;10.90;99.90
8858;DHT22;4465;50.904;4.696;2024-03-23T11:13:49;11.20;99.90
8858;DHT22;4465;50.904;4.696;2024-03-23T11:16:28;11.30;99.90
8858;DHT22;4465;50.904;4.696;2024-03-23T11:19:34;11.40;99.90
8858;DHT22;4465;50.904;4.696;2024-03-23T11:22:02;11.40;99.90
8858;DHT22;4465;50.904;4.696;2024-03-23T11:24:29;11.30;99.90
8858;DHT22;4465;50.904;4.696;2024-03-23T11:26:57;11.20;99.90
8858;DHT22;4465;50.904;4.696;2024-03-23T11:29:26;11.10;99.90
8858;DHT22;4465;50.904;4.696;2024-03-23T11:31:56;11.00;99.90
8858;DHT22;4465;50.904;4.696;2024-03-23T11:34:23;11.10;99.90
8858;DHT22;4465;50.904;4.696;2024-03-23T11:36:50;11.10;99.90
8858;DHT22;4465;50.904;4.696;2024-03-23T11:41:58;11.30;99.90
8858;DHT22;4465;50.904;4.696;2024-03-23T11:44:27;11.60;99.90
8858;DHT22;4465;50.904;4.696;2024-03-23T11:46:53;11.90;99.90
8858;DHT22;4465;50.904;4.696;2024-03-23T11:49:23;12.20;99.90
8858;DHT22;4465;50.904;4.696;2024-03-23T11:51:49;12.30;99.90
8858;DHT22;4465;50.904;4.696;2024-03-23T11:54:15;12.30;99.90
8858;DHT22;4465;50.904;4.696;2024-03-23T11:56:57;12.20;99.90
8858;DHT22;4465;50.904;4.696;2024-03-23T12:02:05;12.10;99.90
8858;DHT22;4465;50.904;4.696;2024-03-23T12:04:31;12.10;99.90
8858;DHT22;4465;50.904;4.696;2024-03-23T12:07:29;12.10;99.90
8858;DHT22;4465;50.904;4.696;2024-03-23T12:10:04;12.10;99.90
8858;DHT22;4465;50.904;4.696;2024-03-23T12:12:32;12.00;99.90
8858;DHT22;4465;50.904;4.696;2024-03-23T12:17:28;12.30;99.90
8858;DHT22;4465;50.904;4.696;2024-03-23T12:19:54;12.30;99.90
8858;DHT22;4465;50.904;4.696;2024-03-23T12:22:23;12.50;99.90
8858;DHT22;4465;50.904;4.696;2024-03-23T12:24:49;12.70;99.90
8858;DHT22;4465;50.904;4.696;2024-03-23T12:27:16;12.80;99.90
8858;DHT22;4465;50.904;4.696;2024-03-23T12:29:43;13.00;99.90
8858;DHT22;4465;50.904;4.696;2024-03-23T12:32:14;13.20;99.90
8858;DHT22;4465;50.904;4.696;2024-03-23T12:34:42;13.30;99.90
8858;DHT22;4465;50.904;4.696;2024-03-23T12:37:08;13.40;99.90
8858;DHT22;4465;50.904;4.696;2024-03-23T12:39:38;13.40;99.90
8858;DHT22;4465;50.904;4.696;2024-03-23T12:42:04;13.30;99.90
8858;DHT22;4465;50.904;4.696;2024-03-23T12:44:30;13.10;99.90
8858;DHT22;4465;50.904;4.696;2024-03-23T12:47:00;13.00;99.90
8858;DHT22;4465;50.904;4.696;2024-03-23T12:49:26;12.80;99.90
8858;DHT22;4465;50.904;4.696;2024-03-23T12:51:56;12.50;99.90
8858;DHT22;4465;50.904;4.696;2024-03-23T12:54:22;12.40;99.90
8858;DHT22;4465;50.904;4.696;2024-03-23T12:56:50;12.30;99.90
8858;DHT22;4465;50.904;4.696;2024-03-23T12:59:16;12.40;99.90
8858;DHT22;4465;50.904;4.696;2024-03-23T13:01:46;12.70;99.90
8858;DHT22;4465;50.904;4.696;2024-03-23T13:04:12;12.90;99.90
8858;DHT22;4465;50.904;4.696;2024-03-23T13:06:38;13.10;99.90
8858;DHT22;4465;50.904;4.696;2024-03-23T13:09:06;13.30;99.90
8858;DHT22;4465;50.904;4.696;2024-03-23T13:11:32;13.50;99.90
8858;DHT22;4465;50.904;4.696;2024-03-23T13:14:00;13.60;99.90
8858;DHT22;4465;50.904;4.696;2024-03-23T13:16:26;13.60;99.90
8858;DHT22;4465;50.904;4.696;2024-03-23T13:18:52;13.70;99.90
8858;DHT22;4465;50.904;4.696;2024-03-23T13:21:18;13.70;99.90
8858;DHT22;4465;50.904;4.696;2024-03-23T13:23:47;13.70;99.90
8858;DHT22;4465;50.904;4.696;2024-03-23T13:26:18;13.70;99.90
8858;DHT22;4465;50.904;4.696;2024-03-23T13:28:44;13.50;99.90
8858;DHT22;4465;50.904;4.696;2024-03-23T13:31:10;13.30;99.90
8858;DHT22;4465;50.904;4.696;2024-03-23T13:33:36;13.20;99.90
8858;DHT22;4465;50.904;4.696;2024-03-23T13:36:05;13.00;99.90
8858;DHT22;4465;50.904;4.696;2024-03-23T13:38:31;12.90;99.90
8858;DHT22;4465;50.904;4.696;2024-03-23T13:41:00;12.80;99.90
8858;DHT22;4465;50.904;4.696;2024-03-23T13:43:27;12.60;99.90
8858;DHT22;4465;50.904;4.696;2024-03-23T13:45:54;12.40;99.90
8858;DHT22;4465;50.904;4.696;2024-03-23T13:48:22;12.30;99.90
8858;DHT22;4465;50.904;4.696;2024-03-23T13:51:00;12.10;99.90
8858;DHT22;4465;50.904;4.696;2024-03-23T13:53:26;11.90;99.90
8858;DHT22;4465;50.904;4.696;2024-03-23T13:55:52;11.80;99.90
8858;DHT22;4465;50.904;4.696;2024-03-23T13:58:21;11.60;99.90
8858;DHT22;4465;50.904;4.696;2024-03-23T14:00:47;11.60;99.90
8858;DHT22;4465;50.904;4.696;2024-03-23T14:03:14;11.50;99.90
8858;DHT22;4465;50.904;4.696;2024-03-23T14:05:43;11.50;99.90
8858;DHT22;4465;50.904;4.696;2024-03-23T14:08:09;11.50;99.90
8858;DHT22;4465;50.904;4.696;2024-03-23T14:10:37;11.40;99.90
8858;DHT22;4465;50.904;4.696;2024-03-23T14:13:05;11.30;99.90
8858;DHT22;4465;50.904;4.696;2024-03-23T14:15:31;11.20;99.90
8858;DHT22;4465;50.904;4.696;2024-03-23T14:18:00;11.10;99.90
8858;DHT22;4465;50.904;4.696;2024-03-23T14:20:26;11.00;99.90
8858;DHT22;4465;50.904;4.696;2024-03-23T14:22:54;10.90;99.90
8858;DHT22;4465;50.904;4.696;2024-03-23T14:25:19;10.80;99.90
8858;DHT22;4465;50.904;4.696;2024-03-23T14:27:50;10.70;99.90
8858;DHT22;4465;50.904;4.696;2024-03-23T14:30:16;10.60;99.90
8858;DHT22;4465;50.904;4.696;2024-03-23T14:32:42;10.60;99.90
8858;DHT22;4465;50.904;4.696;2024-03-23T14:35:08;10.40;99.90
8858;DHT22;4465;50.904;4.696;2024-03-23T14:37:38;10.30;99.90
8858;DHT22;4465;50.904;4.696;2024-03-23T14:40:04;10.20;99.90
8858;DHT22;4465;50.904;4.696;2024-03-23T14:42:30;10.10;99.90
8858;DHT22;4465;50.904;4.696;2024-03-23T14:45:01;10.00;99.90
8858;DHT22;4465;50.904;4.696;2024-03-23T14:47:28;10.00;99.90
8858;DHT22;4465;50.904;4.696;2024-03-23T14:49:54;9.90;99.90
8858;DHT22;4465;50.904;4.696;2024-03-23T14:52:20;9.90;99.90
8858;DHT22;4465;50.904;4.696;2024-03-23T14:54:46;9.90;99.90
8858;DHT22;4465;50.904;4.696;2024-03-23T14:57:12;9.80;99.90
8858;DHT22;4465;50.904;4.696;2024-03-23T14:59:41;9.80;99.90
8858;DHT22;4465;50.904;4.696;2024-03-23T15:02:07;9.70;99.90
8858;DHT22;4465;50.904;4.696;2024-03-23T15:04:33;9.80;99.90
8858;DHT22;4465;50.904;4.696;2024-03-23T15:07:00;9.80;99.90
8858;DHT22;4465;50.904;4.696;2024-03-23T15:09:29;9.80;99.90
8858;DHT22;4465;50.904;4.696;2024-03-23T15:11:54;9.80;99.90
8858;DHT22;4465;50.904;4.696;2024-03-23T15:14:21;9.80;99.90
8858;DHT22;4465;50.904;4.696;2024-03-23T15:16:53;9.90;99.90
8858;DHT22;4465;50.904;4.696;2024-03-23T15:19:19;9.90;99.90
8858;DHT22;4465;50.904;4.696;2024-03-23T15:21:45;9.90;99.90
8858;DHT22;4465;50.904;4.696;2024-03-23T15:24:11;9.90;99.90
8858;DHT22;4465;50.904;4.696;2024-03-23T15:26:40;9.90;99.90
8858;DHT22;4465;50.904;4.696;2024-03-23T15:29:07;10.00;99.90
8858;DHT22;4465;50.904;4.696;2024-03-23T15:31:38;10.00;99.90
8858;DHT22;4465;50.904;4.696;2024-03-23T15:34:04;10.10;99.90
8858;DHT22;4465;50.904;4.696;2024-03-23T15:36:30;10.10;99.90
8858;DHT22;4465;50.904;4.696;2024-03-23T15:38:56;10.20;99.90
8858;DHT22;4465;50.904;4.696;2024-03-23T15:41:25;10.20;99.90
8858;DHT22;4465;50.904;4.696;2024-03-23T15:43:53;10.30;99.90
8858;DHT22;4465;50.904;4.696;2024-03-23T15:46:26;10.20;99.90
8858;DHT22;4465;50.904;4.696;2024-03-23T15:48:52;10.20;99.90
8858;DHT22;4465;50.904;4.696;2024-03-23T15:51:20;10.20;99.90
8858;DHT22;4465;50.904;4.696;2024-03-23T15:53:48;10.20;99.90
8858;DHT22;4465;50.904;4.696;2024-03-23T15:56:14;10.20;99.90
8858;DHT22;4465;50.904;4.696;2024-03-23T15:58:43;10.20;99.90
8858;DHT22;4465;50.904;4.696;2024-03-23T16:01:11;10.20;99.90
8858;DHT22;4465;50.904;4.696;2024-03-23T16:03:39;10.20;99.90
8858;DHT22;4465;50.904;4.696;2024-03-23T16:06:06;10.20;99.90
8858;DHT22;4465;50.904;4.696;2024-03-23T16:08:32;10.20;99.90
8858;DHT22;4465;50.904;4.696;2024-03-23T16:11:07;10.10;99.90
8858;DHT22;4465;50.904;4.696;2024-03-23T16:13:36;10.10;99.90
8858;DHT22;4465;50.904;4.696;2024-03-23T16:16:03;10.10;99.90
8858;DHT22;4465;50.904;4.696;2024-03-23T16:18:32;10.00;99.90
8858;DHT22;4465;50.904;4.696;2024-03-23T16:21:03;10.00;99.90
8858;DHT22;4465;50.904;4.696;2024-03-23T16:23:29;10.00;99.90
8858;DHT22;4465;50.904;4.696;2024-03-23T16:26:00;10.00;99.90
8858;DHT22;4465;50.904;4.696;2024-03-23T16:28:30;9.90;99.90
8858;DHT22;4465;50.904;4.696;2024-03-23T16:30:56;9.90;99.90
8858;DHT22;4465;50.904;4.696;2024-03-23T16:33:28;9.80;99.90
8858;DHT22;4465;50.904;4.696;2024-03-23T16:36:08;9.80;99.90
8858;DHT22;4465;50.904;4.696;2024-03-23T16:38:42;9.80;99.90
8858;DHT22;4465;50.904;4.696;2024-03-23T16:41:12;9.70;99.90
8858;DHT22;4465;50.904;4.696;2024-03-23T16:43:44;9.70;99.90
8858;DHT22;4465;50.904;4.696;2024-03-23T16:46:14;9.70;99.90
8858;DHT22;4465;50.904;4.696;2024-03-23T16:48:43;9.60;99.90
8858;DHT22;4465;50.904;4.696;2024-03-23T16:51:11;9.60;99.90
8858;DHT22;4465;50.904;4.696;2024-03-23T16:53:39;9.60;99.90
8858;DHT22;4465;50.904;4.696;2024-03-23T16:56:09;9.60;99.90
8858;DHT22;4465;50.904;4.696;2024-03-23T16:58:37;9.60;99.90
8858;DHT22;4465;50.904;4.696;2024-03-23T17:03:36;9.50;99.90
8858;DHT22;4465;50.904;4.696;2024-03-23T17:06:08;9.50;99.90
8858;DHT22;4465;50.904;4.696;2024-03-23T17:08:34;9.50;99.90
8858;DHT22;4465;50.904;4.696;2024-03-23T17:11:04;9.50;99.90
8858;DHT22;4465;50.904;4.696;2024-03-23T17:13:33;9.50;99.90
8858;DHT22;4465;50.904;4.696;2024-03-23T17:15:59;9.40;99.90
8858;DHT22;4465;50.904;4.696;2024-03-23T17:18:26;9.40;99.90
8858;DHT22;4465;50.904;4.696;2024-03-23T17:20:55;9.40;99.90
8858;DHT22;4465;50.904;4.696;2024-03-23T17:23:27;9.30;99.90
8858;DHT22;4465;50.904;4.696;2024-03-23T17:25:54;9.40;99.90